sensor_id;sensor_type;location;lat;lon;timestamp;temperature;humidity
13606;DHT22;6874;52.084;5.090;2023-03-09T00:01:49;1.90;99.90
13606;DHT22;6874;52.084;5.090;2023-03-09T00:04:16;1.90;99.90
13606;DHT22;6874;52.084;5.090;2023-03-09T00:06:42;1.90;99.90
13606;DHT22;6874;52.084;5.090;2023-03-09T00:09:08;1.90;99.90
13606;DHT22;6874;52.084;5.090;2023-03-09T00:11:35;1.90;99.90
13606;DHT22;6874;52.084;5.090;2023-03-09T00:14:00;1.90;99.90
13606;DHT22;6874;52.084;5.090;2023-03-09T00:16:28;1.90;99.90
13606;DHT22;6874;52.084;5.090;2023-03-09T00:18:56;1.90;99.90
13606;DHT22;6874;52.084;5.090;2023-03-09T00:21:24;1.80;99.90
13606;DHT22;6874;52.084;5.090;2023-03-09T00:24:09;1.80;99.90
13606;DHT22;6874;52.084;5.090;2023-03-09T00:26:36;1.90;99.90
13606;DHT22;6874;52.084;5.090;2023-03-09T00:29:05;1.90;99.90
13606;DHT22;6874;52.084;5.090;2023-03-09T00:31:32;1.80;99.90
13606;DHT22;6874;52.084;5.090;2023-03-09T00:33:58;1.80;99.90
13606;DHT22;6874;52.084;5.090;2023-03-09T00:36:23;1.80;99.90
13606;DHT22;6874;52.084;5.090;2023-03-09T00:38:51;1.90;99.90
13606;DHT22;6874;52.084;5.090;2023-03-09T00:41:17;1.80;99.90
13606;DHT22;6874;52.084;5.090;2023-03-09T00:43:43;1.80;99.90
13606;DHT22;6874;52.084;5.090;2023-03-09T00:46:09;1.80;99.90
13606;DHT22;6874;52.084;5.090;2023-03-09T00:48:39;1.80;99.90
13606;DHT22;6874;52.084;5.090;2023-03-09T00:51:05;1.80;99.90
13606;DHT22;6874;52.084;5.090;2023-03-09T00:53:31;1.80;99.90
13606;DHT22;6874;52.084;5.090;2023-03-09T00:56:04;1.80;99.90
13606;DHT22;6874;52.084;5.090;2023-03-09T00:58:30;1.80;99.90
13606;DHT22;6874;52.084;5.090;2023-03-09T01:00:56;1.80;99.90
13606;DHT22;6874;52.084;5.090;2023-03-09T01:03:22;1.80;99.90
13606;DHT22;6874;52.084;5.090;2023-03-09T01:05:48;1.80;99.90
13606;DHT22;6874;52.084;5.090;2023-03-09T01:08:13;1.80;99.90
13606;DHT22;6874;52.084;5.090;2023-03-09T01:10:40;1.80;99.90
13606;DHT22;6874;52.084;5.090;2023-03-09T01:13:05;1.80;99.90
13606;DHT22;6874;52.084;5.090;2023-03-09T01:15:31;1.80;99.90
13606;DHT22;6874;52.084;5.090;2023-03-09T01:17:57;1.80;99.90
13606;DHT22;6874;52.084;5.090;2023-03-09T01:20:22;1.80;99.90
13606;DHT22;6874;52.084;5.090;2023-03-09T01:22:48;1.80;99.90
13606;DHT22;6874;52.084;5.090;2023-03-09T01:25:14;1.80;99.90
13606;DHT22;6874;52.084;5.090;2023-03-09T01:27:39;1.80;99.90
13606;DHT22;6874;52.084;5.090;2023-03-09T01:30:06;1.80;99.90
13606;DHT22;6874;52.084;5.090;2023-03-09T01:32:31;1.70;99.90
13606;DHT22;6874;52.084;5.090;2023-03-09T01:34:57;1.80;99.90
13606;DHT22;6874;52.084;5.090;2023-03-09T01:37:23;1.80;99.90
13606;DHT22;6874;52.084;5.090;2023-03-09T01:39:48;1.70;99.90
13606;DHT22;6874;52.084;5.090;2023-03-09T01:42:14;1.80;99.90
13606;DHT22;6874;52.084;5.090;2023-03-09T01:44:40;1.70;99.90
13606;DHT22;6874;52.084;5.090;2023-03-09T01:47:05;1.70;99.90
13606;DHT22;6874;52.084;5.090;2023-03-09T01:49:42;1.70;99.90
13606;DHT22;6874;52.084;5.090;2023-03-09T01:54:52;1.80;99.90
13606;DHT22;6874;52.084;5.090;2023-03-09T01:59:45;1.70;99.90
13606;DHT22;6874;52.084;5.090;2023-03-09T02:02:13;1.80;99.90
13606;DHT22;6874;52.084;5.090;2023-03-09T02:04:44;1.70;99.90
13606;DHT22;6874;52.084;5.090;2023-03-09T02:07:12;1.70;99.90
13606;DHT22;6874;52.084;5.090;2023-03-09T02:09:48;1.70;99.90
13606;DHT22;6874;52.084;5.090;2023-03-09T02:12:18;1.70;99.90
13606;DHT22;6874;52.084;5.090;2023-03-09T02:14:44;1.70;99.90
13606;DHT22;6874;52.084;5.090;2023-03-09T02:17:11;1.70;99.90
13606;DHT22;6874;52.084;5.090;2023-03-09T02:19:52;1.70;99.90
13606;DHT22;6874;52.084;5.090;2023-03-09T02:22:20;1.70;99.90
13606;DHT22;6874;52.084;5.090;2023-03-09T02:24:58;1.70;99.90
13606;DHT22;6874;52.084;5.090;2023-03-09T02:27:26;1.70;99.90
13606;DHT22;6874;52.084;5.090;2023-03-09T02:29:53;1.70;99.90
13606;DHT22;6874;52.084;5.090;2023-03-09T02:32:19;1.70;99.90
13606;DHT22;6874;52.084;5.090;2023-03-09T02:34:44;1.70;99.90
13606;DHT22;6874;52.084;5.090;2023-03-09T02:37:30;1.70;99.90
13606;DHT22;6874;52.084;5.090;2023-03-09T02:40:01;1.70;99.90
13606;DHT22;6874;52.084;5.090;2023-03-09T02:42:30;1.70;99.90
13606;DHT22;6874;52.084;5.090;2023-03-09T02:44:56;1.70;99.90
13606;DHT22;6874;52.084;5.090;2023-03-09T02:47:23;1.70;99.90
13606;DHT22;6874;52.084;5.090;2023-03-09T02:49:49;1.70;99.90
13606;DHT22;6874;52.084;5.090;2023-03-09T02:52:15;1.70;99.90
13606;DHT22;6874;52.084;5.090;2023-03-09T02:54:40;1.70;99.90
13606;DHT22;6874;52.084;5.090;2023-03-09T02:57:06;1.70;99.90
13606;DHT22;6874;52.084;5.090;2023-03-09T02:59:32;1.70;99.90
13606;DHT22;6874;52.084;5.090;2023-03-09T03:01:58;1.70;99.90
13606;DHT22;6874;52.084;5.090;2023-03-09T03:04:23;1.70;99.90
13606;DHT22;6874;52.084;5.090;2023-03-09T03:06:49;1.70;99.90
13606;DHT22;6874;52.084;5.090;2023-03-09T03:09:14;1.70;99.90
13606;DHT22;6874;52.084;5.090;2023-03-09T03:11:41;1.70;99.90
13606;DHT22;6874;52.084;5.090;2023-03-09T03:14:06;1.70;99.90
13606;DHT22;6874;52.084;5.090;2023-03-09T03:16:33;1.70;99.90
13606;DHT22;6874;52.084;5.090;2023-03-09T03:18:59;1.70;99.90
13606;DHT22;6874;52.084;5.090;2023-03-09T03:21:25;1.70;99.90
13606;DHT22;6874;52.084;5.090;2023-03-09T03:23:51;1.70;99.90
13606;DHT22;6874;52.084;5.090;2023-03-09T03:26:17;1.70;99.90
13606;DHT22;6874;52.084;5.090;2023-03-09T03:28:42;1.70;99.90
13606;DHT22;6874;52.084;5.090;2023-03-09T03:31:09;1.70;99.90
13606;DHT22;6874;52.084;5.090;2023-03-09T03:33:35;1.70;99.90
13606;DHT22;6874;52.084;5.090;2023-03-09T03:36:01;1.70;99.90
13606;DHT22;6874;52.084;5.090;2023-03-09T03:38:26;1.70;99.90
13606;DHT22;6874;52.084;5.090;2023-03-09T03:40:52;1.70;99.90
13606;DHT22;6874;52.084;5.090;2023-03-09T03:43:18;1.70;99.90
13606;DHT22;6874;52.084;5.090;2023-03-09T03:45:43;1.70;99.90
13606;DHT22;6874;52.084;5.090;2023-03-09T03:48:09;1.70;99.90
13606;DHT22;6874;52.084;5.090;2023-03-09T03:50:34;1.70;99.90
13606;DHT22;6874;52.084;5.090;2023-03-09T03:53:00;1.70;99.90
13606;DHT22;6874;52.084;5.090;2023-03-09T03:55:25;1.70;99.90
13606;DHT22;6874;52.084;5.090;2023-03-09T03:57:52;1.70;99.90
13606;DHT22;6874;52.084;5.090;2023-03-09T04:00:18;1.70;99.90
13606;DHT22;6874;52.084;5.090;2023-03-09T04:02:46;1.70;99.90
13606;DHT22;6874;52.084;5.090;2023-03-09T04:05:12;1.70;99.90
13606;DHT22;6874;52.084;5.090;2023-03-09T04:07:37;1.70;99.90
13606;DHT22;6874;52.084;5.090;2023-03-09T04:10:04;1.70;99.90
13606;DHT22;6874;52.084;5.090;2023-03-09T04:12:29;1.70;99.90
13606;DHT22;6874;52.084;5.090;2023-03-09T04:14:55;1.70;99.90
13606;DHT22;6874;52.084;5.090;2023-03-09T04:17:21;1.70;99.90
13606;DHT22;6874;52.084;5.090;2023-03-09T04:19:46;1.70;99.90
13606;DHT22;6874;52.084;5.090;2023-03-09T04:22:12;1.60;99.90
13606;DHT22;6874;52.084;5.090;2023-03-09T04:24:37;1.70;99.90
13606;DHT22;6874;52.084;5.090;2023-03-09T04:27:03;1.60;99.90
13606;DHT22;6874;52.084;5.090;2023-03-09T04:29:28;1.70;99.90
13606;DHT22;6874;52.084;5.090;2023-03-09T04:31:54;1.70;99.90
13606;DHT22;6874;52.084;5.090;2023-03-09T04:34:19;1.70;99.90
13606;DHT22;6874;52.084;5.090;2023-03-09T04:36:45;1.70;99.90
13606;DHT22;6874;52.084;5.090;2023-03-09T04:39:11;1.70;99.90
13606;DHT22;6874;52.084;5.090;2023-03-09T04:41:36;1.70;99.90
13606;DHT22;6874;52.084;5.090;2023-03-09T04:44:02;1.70;99.90
13606;DHT22;6874;52.084;5.090;2023-03-09T04:46:28;1.70;99.90
13606;DHT22;6874;52.084;5.090;2023-03-09T04:48:54;1.70;99.90
13606;DHT22;6874;52.084;5.090;2023-03-09T04:51:19;1.70;99.90
13606;DHT22;6874;52.084;5.090;2023-03-09T04:53:45;1.70;99.90
13606;DHT22;6874;52.084;5.090;2023-03-09T04:56:11;1.70;99.90
13606;DHT22;6874;52.084;5.090;2023-03-09T04:58:37;1.60;99.90
13606;DHT22;6874;52.084;5.090;2023-03-09T05:01:02;1.70;99.90
13606;DHT22;6874;52.084;5.090;2023-03-09T05:03:28;1.70;99.90
13606;DHT22;6874;52.084;5.090;2023-03-09T05:05:54;1.70;99.90
13606;DHT22;6874;52.084;5.090;2023-03-09T05:08:20;1.70;99.90
13606;DHT22;6874;52.084;5.090;2023-03-09T05:10:46;1.70;99.90
13606;DHT22;6874;52.084;5.090;2023-03-09T05:13:13;1.70;99.90
13606;DHT22;6874;52.084;5.090;2023-03-09T05:15:40;1.70;99.90
13606;DHT22;6874;52.084;5.090;2023-03-09T05:18:06;1.70;99.90
13606;DHT22;6874;52.084;5.090;2023-03-09T05:20:32;1.70;99.90
13606;DHT22;6874;52.084;5.090;2023-03-09T05:22:59;1.70;99.90
13606;DHT22;6874;52.084;5.090;2023-03-09T05:25:24;1.70;99.90
13606;DHT22;6874;52.084;5.090;2023-03-09T05:27:50;1.60;99.90
13606;DHT22;6874;52.084;5.090;2023-03-09T05:30:17;1.70;99.90
13606;DHT22;6874;52.084;5.090;2023-03-09T05:32:42;1.70;99.90
13606;DHT22;6874;52.084;5.090;2023-03-09T05:35:08;1.70;99.90
13606;DHT22;6874;52.084;5.090;2023-03-09T05:37:34;1.60;99.90
13606;DHT22;6874;52.084;5.090;2023-03-09T05:39:59;1.70;99.90
13606;DHT22;6874;52.084;5.090;2023-03-09T05:42:25;1.70;99.90
13606;DHT22;6874;52.084;5.090;2023-03-09T05:44:51;1.70;99.90
13606;DHT22;6874;52.084;5.090;2023-03-09T05:47:16;1.70;99.90
13606;DHT22;6874;52.084;5.090;2023-03-09T05:49:42;1.70;99.90
13606;DHT22;6874;52.084;5.090;2023-03-09T05:52:08;1.70;99.90
13606;DHT22;6874;52.084;5.090;2023-03-09T05:54:33;1.70;99.90
13606;DHT22;6874;52.084;5.090;2023-03-09T05:57:00;1.70;99.90
13606;DHT22;6874;52.084;5.090;2023-03-09T05:59:25;1.70;99.90
13606;DHT22;6874;52.084;5.090;2023-03-09T06:01:51;1.70;99.90
13606;DHT22;6874;52.084;5.090;2023-03-09T06:04:16;1.70;99.90
13606;DHT22;6874;52.084;5.090;2023-03-09T06:06:42;1.70;99.90
13606;DHT22;6874;52.084;5.090;2023-03-09T06:09:07;1.70;99.90
13606;DHT22;6874;52.084;5.090;2023-03-09T06:11:33;1.70;99.90
13606;DHT22;6874;52.084;5.090;2023-03-09T06:13:59;1.70;99.90
13606;DHT22;6874;52.084;5.090;2023-03-09T06:16:24;1.70;99.90
13606;DHT22;6874;52.084;5.090;2023-03-09T06:18:54;1.70;99.90
13606;DHT22;6874;52.084;5.090;2023-03-09T06:21:19;1.70;99.90
13606;DHT22;6874;52.084;5.090;2023-03-09T06:23:45;1.70;99.90
13606;DHT22;6874;52.084;5.090;2023-03-09T06:26:11;1.70;99.90
13606;DHT22;6874;52.084;5.090;2023-03-09T06:28:38;1.70;99.90
13606;DHT22;6874;52.084;5.090;2023-03-09T06:31:08;1.70;99.90
13606;DHT22;6874;52.084;5.090;2023-03-09T06:33:38;1.70;99.90
13606;DHT22;6874;52.084;5.090;2023-03-09T06:36:04;1.70;99.90
13606;DHT22;6874;52.084;5.090;2023-03-09T06:38:29;1.70;99.90
13606;DHT22;6874;52.084;5.090;2023-03-09T06:40:55;1.70;99.90
13606;DHT22;6874;52.084;5.090;2023-03-09T06:43:21;1.70;99.90
13606;DHT22;6874;52.084;5.090;2023-03-09T06:45:47;1.70;99.90
13606;DHT22;6874;52.084;5.090;2023-03-09T06:48:13;1.70;99.90
13606;DHT22;6874;52.084;5.090;2023-03-09T06:50:40;1.70;99.90
13606;DHT22;6874;52.084;5.090;2023-03-09T06:53:06;1.70;99.90
13606;DHT22;6874;52.084;5.090;2023-03-09T06:55:31;1.70;99.90
13606;DHT22;6874;52.084;5.090;2023-03-09T06:57:57;1.70;99.90
13606;DHT22;6874;52.084;5.090;2023-03-09T07:00:23;1.70;99.90
13606;DHT22;6874;52.084;5.090;2023-03-09T07:02:48;1.70;99.90
13606;DHT22;6874;52.084;5.090;2023-03-09T07:05:14;1.70;99.90
13606;DHT22;6874;52.084;5.090;2023-03-09T07:07:40;1.70;99.90
13606;DHT22;6874;52.084;5.090;2023-03-09T07:10:09;1.70;99.90
13606;DHT22;6874;52.084;5.090;2023-03-09T07:12:35;1.70;99.90
13606;DHT22;6874;52.084;5.090;2023-03-09T07:15:01;1.70;99.90
13606;DHT22;6874;52.084;5.090;2023-03-09T07:17:27;1.80;99.90
13606;DHT22;6874;52.084;5.090;2023-03-09T07:19:52;1.70;99.90
13606;DHT22;6874;52.084;5.090;2023-03-09T07:22:18;1.70;99.90
13606;DHT22;6874;52.084;5.090;2023-03-09T07:24:43;1.80;99.90
13606;DHT22;6874;52.084;5.090;2023-03-09T07:27:09;1.80;99.90
13606;DHT22;6874;52.084;5.090;2023-03-09T07:29:35;1.80;99.90
13606;DHT22;6874;52.084;5.090;2023-03-09T07:32:02;1.80;99.90
13606;DHT22;6874;52.084;5.090;2023-03-09T07:34:28;1.80;99.90
13606;DHT22;6874;52.084;5.090;2023-03-09T07:36:53;1.80;99.90
13606;DHT22;6874;52.084;5.090;2023-03-09T07:39:19;1.80;99.90
13606;DHT22;6874;52.084;5.090;2023-03-09T07:41:45;1.80;99.90
13606;DHT22;6874;52.084;5.090;2023-03-09T07:44:10;1.80;99.90
13606;DHT22;6874;52.084;5.090;2023-03-09T07:46:36;1.80;99.90
13606;DHT22;6874;52.084;5.090;2023-03-09T07:49:02;1.90;99.90
13606;DHT22;6874;52.084;5.090;2023-03-09T07:51:27;1.90;99.90
13606;DHT22;6874;52.084;5.090;2023-03-09T07:53:54;1.90;99.90
13606;DHT22;6874;52.084;5.090;2023-03-09T07:56:19;1.90;99.90
13606;DHT22;6874;52.084;5.090;2023-03-09T07:58:45;1.90;99.90
13606;DHT22;6874;52.084;5.090;2023-03-09T08:01:16;1.90;99.90
13606;DHT22;6874;52.084;5.090;2023-03-09T08:03:46;1.90;99.90
13606;DHT22;6874;52.084;5.090;2023-03-09T08:06:12;1.90;99.90
13606;DHT22;6874;52.084;5.090;2023-03-09T08:08:38;2.00;99.90
13606;DHT22;6874;52.084;5.090;2023-03-09T08:11:05;2.00;99.90
13606;DHT22;6874;52.084;5.090;2023-03-09T08:13:31;2.00;99.90
13606;DHT22;6874;52.084;5.090;2023-03-09T08:16:00;2.00;99.90
13606;DHT22;6874;52.084;5.090;2023-03-09T08:18:26;2.00;99.90
13606;DHT22;6874;52.084;5.090;2023-03-09T08:20:52;2.10;99.90
13606;DHT22;6874;52.084;5.090;2023-03-09T08:23:17;2.10;99.90
13606;DHT22;6874;52.084;5.090;2023-03-09T08:25:43;2.20;99.90
13606;DHT22;6874;52.084;5.090;2023-03-09T08:28:11;2.20;99.90
13606;DHT22;6874;52.084;5.090;2023-03-09T08:30:38;2.20;99.90
13606;DHT22;6874;52.084;5.090;2023-03-09T08:33:04;2.20;99.90
13606;DHT22;6874;52.084;5.090;2023-03-09T08:35:30;2.20;99.90
13606;DHT22;6874;52.084;5.090;2023-03-09T08:37:58;2.20;99.90
13606;DHT22;6874;52.084;5.090;2023-03-09T08:40:24;2.20;99.90
13606;DHT22;6874;52.084;5.090;2023-03-09T08:42:49;2.30;99.90
13606;DHT22;6874;52.084;5.090;2023-03-09T08:45:15;2.30;99.90
13606;DHT22;6874;52.084;5.090;2023-03-09T08:47:41;2.30;99.90
13606;DHT22;6874;52.084;5.090;2023-03-09T08:50:06;2.30;99.90
13606;DHT22;6874;52.084;5.090;2023-03-09T08:52:33;2.30;99.90
13606;DHT22;6874;52.084;5.090;2023-03-09T08:55:04;2.30;99.90
13606;DHT22;6874;52.084;5.090;2023-03-09T08:57:31;2.30;99.90
13606;DHT22;6874;52.084;5.090;2023-03-09T08:59:57;2.30;99.90
13606;DHT22;6874;52.084;5.090;2023-03-09T09:02:23;2.30;99.90
13606;DHT22;6874;52.084;5.090;2023-03-09T09:04:49;2.30;99.90
13606;DHT22;6874;52.084;5.090;2023-03-09T09:07:15;2.40;99.90
13606;DHT22;6874;52.084;5.090;2023-03-09T09:09:41;2.40;99.90
13606;DHT22;6874;52.084;5.090;2023-03-09T09:12:08;2.40;99.90
13606;DHT22;6874;52.084;5.090;2023-03-09T09:14:36;2.40;99.90
13606;DHT22;6874;52.084;5.090;2023-03-09T09:17:05;2.40;99.90
13606;DHT22;6874;52.084;5.090;2023-03-09T09:19:35;2.40;99.90
13606;DHT22;6874;52.084;5.090;2023-03-09T09:22:00;2.40;99.90
13606;DHT22;6874;52.084;5.090;2023-03-09T09:24:30;2.40;99.90
13606;DHT22;6874;52.084;5.090;2023-03-09T09:26:58;2.40;99.90
13606;DHT22;6874;52.084;5.090;2023-03-09T09:29:24;2.40;99.90
13606;DHT22;6874;52.084;5.090;2023-03-09T09:31:49;2.50;99.90
13606;DHT22;6874;52.084;5.090;2023-03-09T09:34:15;2.40;99.90
13606;DHT22;6874;52.084;5.090;2023-03-09T09:36:43;2.50;99.90
13606;DHT22;6874;52.084;5.090;2023-03-09T09:39:09;2.50;99.90
13606;DHT22;6874;52.084;5.090;2023-03-09T09:41:49;2.50;99.90
13606;DHT22;6874;52.084;5.090;2023-03-09T09:44:19;2.50;99.90
13606;DHT22;6874;52.084;5.090;2023-03-09T09:46:46;2.60;99.90
13606;DHT22;6874;52.084;5.090;2023-03-09T09:49:24;2.50;99.90
13606;DHT22;6874;52.084;5.090;2023-03-09T10:00:06;2.60;99.90
13606;DHT22;6874;52.084;5.090;2023-03-09T10:08:57;2.70;99.90
13606;DHT22;6874;52.084;5.090;2023-03-09T10:11:36;2.70;99.90
13606;DHT22;6874;52.084;5.090;2023-03-09T10:17:09;2.70;99.90
13606;DHT22;6874;52.084;5.090;2023-03-09T10:19:39;2.70;99.90
13606;DHT22;6874;52.084;5.090;2023-03-09T10:22:14;2.70;99.90
13606;DHT22;6874;52.084;5.090;2023-03-09T10:24:44;2.80;99.90
13606;DHT22;6874;52.084;5.090;2023-03-09T10:27:35;2.80;99.90
13606;DHT22;6874;52.084;5.090;2023-03-09T10:32:52;2.90;99.90
13606;DHT22;6874;52.084;5.090;2023-03-09T10:37:56;2.90;99.90
13606;DHT22;6874;52.084;5.090;2023-03-09T10:40:23;2.90;99.90
13606;DHT22;6874;52.084;5.090;2023-03-09T10:42:49;3.00;99.90
13606;DHT22;6874;52.084;5.090;2023-03-09T10:45:28;3.00;99.90
13606;DHT22;6874;52.084;5.090;2023-03-09T10:47:58;3.00;99.90
13606;DHT22;6874;52.084;5.090;2023-03-09T10:50:39;3.00;99.90
13606;DHT22;6874;52.084;5.090;2023-03-09T10:53:36;3.10;99.90
13606;DHT22;6874;52.084;5.090;2023-03-09T10:58:29;3.10;99.90
13606;DHT22;6874;52.084;5.090;2023-03-09T11:01:24;3.10;99.90
13606;DHT22;6874;52.084;5.090;2023-03-09T11:03:50;3.10;99.90
13606;DHT22;6874;52.084;5.090;2023-03-09T11:08:42;3.20;99.90
13606;DHT22;6874;52.084;5.090;2023-03-09T11:11:19;3.20;99.90
13606;DHT22;6874;52.084;5.090;2023-03-09T11:13:46;3.30;99.90
13606;DHT22;6874;52.084;5.090;2023-03-09T11:16:15;3.30;99.90
13606;DHT22;6874;52.084;5.090;2023-03-09T11:18:43;3.30;99.90
13606;DHT22;6874;52.084;5.090;2023-03-09T11:21:09;3.30;99.90
13606;DHT22;6874;52.084;5.090;2023-03-09T11:23:45;3.40;99.90
13606;DHT22;6874;52.084;5.090;2023-03-09T11:29:26;3.40;99.90
13606;DHT22;6874;52.084;5.090;2023-03-09T11:31:57;3.40;99.90
13606;DHT22;6874;52.084;5.090;2023-03-09T11:34:34;3.40;99.90
13606;DHT22;6874;52.084;5.090;2023-03-09T11:40:12;3.50;99.90
13606;DHT22;6874;52.084;5.090;2023-03-09T11:42:47;3.50;99.90
13606;DHT22;6874;52.084;5.090;2023-03-09T11:45:17;3.50;99.90
13606;DHT22;6874;52.084;5.090;2023-03-09T11:47:45;3.50;99.90
13606;DHT22;6874;52.084;5.090;2023-03-09T11:50:22;3.50;99.90
13606;DHT22;6874;52.084;5.090;2023-03-09T11:55:24;3.50;99.90
13606;DHT22;6874;52.084;5.090;2023-03-09T11:57:57;3.50;99.90
13606;DHT22;6874;52.084;5.090;2023-03-09T12:00:26;3.60;99.90
13606;DHT22;6874;52.084;5.090;2023-03-09T12:03:03;3.60;99.90
13606;DHT22;6874;52.084;5.090;2023-03-09T12:05:36;3.60;99.90
13606;DHT22;6874;52.084;5.090;2023-03-09T12:11:04;3.60;99.90
13606;DHT22;6874;52.084;5.090;2023-03-09T12:16:23;3.70;99.90
13606;DHT22;6874;52.084;5.090;2023-03-09T12:21:38;3.70;99.90
13606;DHT22;6874;52.084;5.090;2023-03-09T12:24:25;3.70;99.90
13606;DHT22;6874;52.084;5.090;2023-03-09T12:29:34;3.80;99.90
13606;DHT22;6874;52.084;5.090;2023-03-09T12:34:53;3.80;99.90
13606;DHT22;6874;52.084;5.090;2023-03-09T12:42:41;3.80;99.90
13606;DHT22;6874;52.084;5.090;2023-03-09T12:48:19;3.80;99.90
13606;DHT22;6874;52.084;5.090;2023-03-09T12:51:08;3.80;99.90
13606;DHT22;6874;52.084;5.090;2023-03-09T12:53:59;3.80;99.90
13606;DHT22;6874;52.084;5.090;2023-03-09T12:56:26;3.80;99.90
13606;DHT22;6874;52.084;5.090;2023-03-09T12:58:54;3.80;99.90
13606;DHT22;6874;52.084;5.090;2023-03-09T13:03:50;3.80;99.90
13606;DHT22;6874;52.084;5.090;2023-03-09T13:09:02;3.80;99.90
13606;DHT22;6874;52.084;5.090;2023-03-09T13:11:33;3.80;99.90
13606;DHT22;6874;52.084;5.090;2023-03-09T13:14:09;3.80;99.90
13606;DHT22;6874;52.084;5.090;2023-03-09T13:22:11;3.70;99.90
13606;DHT22;6874;52.084;5.090;2023-03-09T13:24:41;3.70;99.90
13606;DHT22;6874;52.084;5.090;2023-03-09T13:30:13;3.70;99.90
13606;DHT22;6874;52.084;5.090;2023-03-09T13:35:27;3.70;99.90
13606;DHT22;6874;52.084;5.090;2023-03-09T13:37:55;3.70;99.90
13606;DHT22;6874;52.084;5.090;2023-03-09T13:40:29;3.80;99.90
13606;DHT22;6874;52.084;5.090;2023-03-09T13:42:56;3.80;99.90
13606;DHT22;6874;52.084;5.090;2023-03-09T13:45:25;3.80;99.90
13606;DHT22;6874;52.084;5.090;2023-03-09T13:47:57;3.80;99.90
13606;DHT22;6874;52.084;5.090;2023-03-09T13:50:28;3.80;99.90
13606;DHT22;6874;52.084;5.090;2023-03-09T13:53:04;3.80;99.90
13606;DHT22;6874;52.084;5.090;2023-03-09T13:55:31;3.80;99.90
13606;DHT22;6874;52.084;5.090;2023-03-09T13:58:14;3.80;99.90
13606;DHT22;6874;52.084;5.090;2023-03-09T14:03:23;3.80;99.90
13606;DHT22;6874;52.084;5.090;2023-03-09T14:06:03;3.70;99.90
13606;DHT22;6874;52.084;5.090;2023-03-09T14:08:34;3.70;99.90
13606;DHT22;6874;52.084;5.090;2023-03-09T14:11:06;3.70;99.90
13606;DHT22;6874;52.084;5.090;2023-03-09T14:13:34;3.70;99.90
13606;DHT22;6874;52.084;5.090;2023-03-09T14:16:14;3.70;99.90
13606;DHT22;6874;52.084;5.090;2023-03-09T14:18:49;3.70;99.90
13606;DHT22;6874;52.084;5.090;2023-03-09T14:21:25;3.70;99.90
13606;DHT22;6874;52.084;5.090;2023-03-09T14:23:52;3.70;99.90
13606;DHT22;6874;52.084;5.090;2023-03-09T14:26:27;3.70;99.90
13606;DHT22;6874;52.084;5.090;2023-03-09T14:29:28;3.70;99.90
13606;DHT22;6874;52.084;5.090;2023-03-09T14:34:42;3.70;99.90
13606;DHT22;6874;52.084;5.090;2023-03-09T14:37:17;3.70;99.90
13606;DHT22;6874;52.084;5.090;2023-03-09T14:39:42;3.70;99.90
13606;DHT22;6874;52.084;5.090;2023-03-09T14:44:45;3.70;99.90
13606;DHT22;6874;52.084;5.090;2023-03-09T14:47:16;3.70;99.90
13606;DHT22;6874;52.084;5.090;2023-03-09T14:49:49;3.70;99.90
13606;DHT22;6874;52.084;5.090;2023-03-09T14:52:15;3.70;99.90
13606;DHT22;6874;52.084;5.090;2023-03-09T14:54:42;3.70;99.90
13606;DHT22;6874;52.084;5.090;2023-03-09T14:57:12;3.70;99.90
13606;DHT22;6874;52.084;5.090;2023-03-09T14:59:38;3.70;99.90
13606;DHT22;6874;52.084;5.090;2023-03-09T15:02:06;3.80;99.90
13606;DHT22;6874;52.084;5.090;2023-03-09T15:04:33;3.80;99.90
13606;DHT22;6874;52.084;5.090;2023-03-09T15:07:00;3.80;99.90
13606;DHT22;6874;52.084;5.090;2023-03-09T15:09:29;3.80;99.90
13606;DHT22;6874;52.084;5.090;2023-03-09T15:11:58;3.80;99.90
13606;DHT22;6874;52.084;5.090;2023-03-09T15:14:29;3.80;99.90
13606;DHT22;6874;52.084;5.090;2023-03-09T15:16:55;3.80;99.90
13606;DHT22;6874;52.084;5.090;2023-03-09T15:19:22;3.80;99.90
13606;DHT22;6874;52.084;5.090;2023-03-09T15:21:48;3.80;99.90
13606;DHT22;6874;52.084;5.090;2023-03-09T15:24:16;3.80;99.90
13606;DHT22;6874;52.084;5.090;2023-03-09T15:26:41;3.80;99.90
13606;DHT22;6874;52.084;5.090;2023-03-09T15:29:08;3.80;99.90
13606;DHT22;6874;52.084;5.090;2023-03-09T15:31:33;3.80;99.90
13606;DHT22;6874;52.084;5.090;2023-03-09T15:33:59;3.80;99.90
13606;DHT22;6874;52.084;5.090;2023-03-09T15:36:25;3.80;99.90
13606;DHT22;6874;52.084;5.090;2023-03-09T15:38:50;3.80;99.90
13606;DHT22;6874;52.084;5.090;2023-03-09T15:41:16;3.80;99.90
13606;DHT22;6874;52.084;5.090;2023-03-09T15:43:42;3.80;99.90
13606;DHT22;6874;52.084;5.090;2023-03-09T15:46:08;3.80;99.90
13606;DHT22;6874;52.084;5.090;2023-03-09T15:48:34;3.80;99.90
13606;DHT22;6874;52.084;5.090;2023-03-09T15:51:00;3.80;99.90
13606;DHT22;6874;52.084;5.090;2023-03-09T15:53:26;3.70;99.90
13606;DHT22;6874;52.084;5.090;2023-03-09T15:56:14;3.70;99.90
13606;DHT22;6874;52.084;5.090;2023-03-09T15:58:40;3.70;99.90
13606;DHT22;6874;52.084;5.090;2023-03-09T16:01:11;3.70;99.90
13606;DHT22;6874;52.084;5.090;2023-03-09T16:03:38;3.70;99.90
13606;DHT22;6874;52.084;5.090;2023-03-09T16:06:05;3.70;99.90
13606;DHT22;6874;52.084;5.090;2023-03-09T16:08:30;3.70;99.90
13606;DHT22;6874;52.084;5.090;2023-03-09T16:10:56;3.70;99.90
13606;DHT22;6874;52.084;5.090;2023-03-09T16:13:21;3.70;99.90
13606;DHT22;6874;52.084;5.090;2023-03-09T16:15:48;3.70;99.90
13606;DHT22;6874;52.084;5.090;2023-03-09T16:18:14;3.70;99.90
13606;DHT22;6874;52.084;5.090;2023-03-09T16:20:40;3.70;99.90
13606;DHT22;6874;52.084;5.090;2023-03-09T16:23:06;3.70;99.90
13606;DHT22;6874;52.084;5.090;2023-03-09T16:25:32;3.70;99.90
13606;DHT22;6874;52.084;5.090;2023-03-09T16:27:57;3.60;99.90
13606;DHT22;6874;52.084;5.090;2023-03-09T16:30:26;3.60;99.90
13606;DHT22;6874;52.084;5.090;2023-03-09T16:32:54;3.60;99.90
13606;DHT22;6874;52.084;5.090;2023-03-09T16:35:21;3.60;99.90
13606;DHT22;6874;52.084;5.090;2023-03-09T16:37:48;3.60;99.90
13606;DHT22;6874;52.084;5.090;2023-03-09T16:40:14;3.60;99.90
13606;DHT22;6874;52.084;5.090;2023-03-09T16:42:40;3.60;99.90
13606;DHT22;6874;52.084;5.090;2023-03-09T16:45:06;3.60;99.90
13606;DHT22;6874;52.084;5.090;2023-03-09T16:47:31;3.60;99.90
13606;DHT22;6874;52.084;5.090;2023-03-09T16:49:59;3.60;99.90
13606;DHT22;6874;52.084;5.090;2023-03-09T16:52:26;3.60;99.90
13606;DHT22;6874;52.084;5.090;2023-03-09T16:54:55;3.60;99.90
13606;DHT22;6874;52.084;5.090;2023-03-09T16:57:21;3.60;99.90
13606;DHT22;6874;52.084;5.090;2023-03-09T16:59:53;3.50;99.90
13606;DHT22;6874;52.084;5.090;2023-03-09T17:02:20;3.50;99.90
13606;DHT22;6874;52.084;5.090;2023-03-09T17:04:46;3.50;99.90
13606;DHT22;6874;52.084;5.090;2023-03-09T17:07:11;3.50;99.90
13606;DHT22;6874;52.084;5.090;2023-03-09T17:09:37;3.50;99.90
13606;DHT22;6874;52.084;5.090;2023-03-09T17:12:03;3.50;99.90
13606;DHT22;6874;52.084;5.090;2023-03-09T17:14:28;3.50;99.90
13606;DHT22;6874;52.084;5.090;2023-03-09T17:16:54;3.50;99.90
13606;DHT22;6874;52.084;5.090;2023-03-09T17:19:20;3.50;99.90
13606;DHT22;6874;52.084;5.090;2023-03-09T17:21:46;3.50;99.90
13606;DHT22;6874;52.084;5.090;2023-03-09T17:24:12;3.50;99.90
13606;DHT22;6874;52.084;5.090;2023-03-09T17:26:38;3.40;99.90
13606;DHT22;6874;52.084;5.090;2023-03-09T17:29:04;3.40;99.90
13606;DHT22;6874;52.084;5.090;2023-03-09T17:31:29;3.40;99.90
13606;DHT22;6874;52.084;5.090;2023-03-09T17:34:00;3.40;99.90
13606;DHT22;6874;52.084;5.090;2023-03-09T17:36:25;3.40;99.90